createdAt,value
2023-08-03T00:01:15.506Z,97585.40
2023-08-03T00:03:43.229Z,97592.80
2023-08-03T00:06:11.052Z,97601.60
2023-08-03T00:08:38.760Z,97607.60
2023-08-03T00:11:06.451Z,97611.60
2023-08-03T00:13:34.183Z,97624.60
2023-08-03T00:16:01.910Z,97627.20
2023-08-03T00:18:29.572Z,97625.00
2023-08-03T00:20:57.335Z,97614.40
2023-08-03T00:23:25.068Z,97624.20
2023-08-03T00:25:52.721Z,97631.40
2023-08-03T00:28:22.539Z,97624.40
2023-08-03T00:30:50.383Z,97635.40
2023-08-03T00:33:18.128Z,97629.20
2023-08-03T00:35:45.825Z,97634.20
2023-08-03T00:38:13.572Z,97632.60
2023-08-03T00:40:41.412Z,97630.00
2023-08-03T00:43:09.192Z,97636.20
2023-08-03T00:45:36.888Z,97649.60
2023-08-03T00:48:04.768Z,97644.80
2023-08-03T00:50:32.520Z,97654.80
2023-08-03T00:53:00.217Z,97642.80
2023-08-03T00:55:27.923Z,97633.80
2023-08-03T00:57:55.611Z,97606.20
2023-08-03T01:00:23.347Z,97597.60
2023-08-03T01:02:51.260Z,97587.40
2023-08-03T01:05:19.223Z,97586.40
2023-08-03T01:07:46.904Z,97593.20
2023-08-03T01:10:14.706Z,97593.60
2023-08-03T01:12:42.382Z,97606.60
2023-08-03T01:15:10.562Z,97614.60
2023-08-03T01:17:38.326Z,97610.60
2023-08-03T01:20:07.057Z,97603.40
2023-08-03T01:22:44.516Z,97593.20
2023-08-03T01:25:13.525Z,97595.60
2023-08-03T01:27:41.846Z,97600.80
2023-08-03T01:30:10.050Z,97601.60
2023-08-03T01:32:38.391Z,97613.60
2023-08-03T01:35:07.565Z,97622.00
2023-08-03T01:37:37.042Z,97627.00
2023-08-03T01:40:05.923Z,97638.20
2023-08-03T01:42:33.890Z,97627.60
2023-08-03T01:45:01.578Z,97622.80
2023-08-03T01:47:29.327Z,97632.00
2023-08-03T01:49:56.940Z,97645.40
2023-08-03T01:52:24.574Z,97646.40
2023-08-03T01:54:52.380Z,97649.20
2023-08-03T01:57:20.112Z,97648.20
2023-08-03T01:59:47.855Z,97661.80
2023-08-03T02:02:15.951Z,97660.80
2023-08-03T02:04:43.657Z,97665.40
2023-08-03T02:07:18.376Z,97671.60
2023-08-03T02:09:46.036Z,97667.60
2023-08-03T02:12:13.684Z,97675.20
2023-08-03T02:14:41.297Z,97681.20
2023-08-03T02:17:08.938Z,97678.60
2023-08-03T02:19:38.500Z,97666.20
2023-08-03T02:22:06.907Z,97662.00
2023-08-03T02:24:34.590Z,97655.00
2023-08-03T02:27:02.248Z,97627.00
2023-08-03T02:29:29.887Z,97606.60
2023-08-03T02:31:57.565Z,97598.60
2023-08-03T02:34:25.213Z,97593.80
2023-08-03T02:36:52.872Z,97597.80
2023-08-03T02:39:20.545Z,97598.00
2023-08-03T02:41:48.545Z,97604.20
2023-08-03T02:44:16.397Z,97601.60
2023-08-03T02:46:44.035Z,97577.00
2023-08-03T02:49:11.795Z,97591.40
2023-08-03T02:51:39.431Z,97610.60
2023-08-03T02:54:07.121Z,97612.40
2023-08-03T02:56:34.761Z,97611.80
2023-08-03T02:59:02.438Z,97567.40
2023-08-03T03:01:31.256Z,97571.60
2023-08-03T03:03:58.948Z,97575.60
2023-08-03T03:06:26.586Z,97604.00
2023-08-03T03:08:54.396Z,97620.00
2023-08-03T03:11:22.108Z,97630.40
2023-08-03T03:13:49.745Z,97627.80
2023-08-03T03:16:17.523Z,97631.40
2023-08-03T03:18:45.355Z,97636.40
2023-08-03T03:21:13.013Z,97642.60
2023-08-03T03:23:40.692Z,97650.60
2023-08-03T03:26:08.376Z,97657.00
2023-08-03T03:28:35.989Z,97657.00
2023-08-03T03:31:03.802Z,97659.80
2023-08-03T03:33:31.512Z,97663.40
2023-08-03T03:35:59.282Z,97665.00
2023-08-03T03:38:27.025Z,97659.20
2023-08-03T03:40:54.644Z,97666.80
2023-08-03T03:43:22.363Z,97670.20
2023-08-03T03:45:50.017Z,97668.80
2023-08-03T03:48:17.800Z,97651.40
2023-08-03T03:50:45.507Z,97651.00
2023-08-03T03:53:13.165Z,97637.00
2023-08-03T03:55:40.809Z,97650.60
2023-08-03T03:58:08.716Z,97651.40
2023-08-03T04:00:41.322Z,97644.20
2023-08-03T04:03:09.400Z,97648.20
2023-08-03T04:05:38.830Z,97636.60
2023-08-03T04:08:07.212Z,97637.00
2023-08-03T04:10:36.542Z,97647.00
2023-08-03T04:13:04.262Z,97664.40
2023-08-03T04:15:32.013Z,97668.80
2023-08-03T04:18:00.129Z,97681.20
2023-08-03T04:20:27.878Z,97709.80
2023-08-03T04:22:55.502Z,97704.00
2023-08-03T04:25:23.169Z,97708.00
2023-08-03T04:27:51.254Z,97712.60
2023-08-03T04:30:18.890Z,97705.40
2023-08-03T04:32:46.650Z,97691.80
2023-08-03T04:35:15.507Z,97672.20
2023-08-03T04:37:43.184Z,97654.00
2023-08-03T04:40:11.539Z,97671.20
2023-08-03T04:42:39.313Z,97684.40
2023-08-03T04:45:07.864Z,97714.80
2023-08-03T04:47:35.608Z,97742.80
2023-08-03T04:50:03.346Z,97756.60
2023-08-03T04:52:30.986Z,97777.00
2023-08-03T04:54:58.666Z,97775.00
2023-08-03T04:57:26.663Z,97781.00
2023-08-03T04:59:54.316Z,97780.20
2023-08-03T05:02:22.114Z,97786.40
2023-08-03T05:04:49.850Z,97788.80
2023-08-03T05:07:17.538Z,97780.00
2023-08-03T05:09:45.185Z,97770.60
2023-08-03T05:12:12.879Z,97769.60
2023-08-03T05:14:40.558Z,97766.20
2023-08-03T05:17:08.249Z,97797.00
2023-08-03T05:19:35.884Z,97789.20
2023-08-03T05:22:03.673Z,97768.20
2023-08-03T05:24:31.860Z,97767.80
2023-08-03T05:27:00.056Z,97772.60
2023-08-03T05:29:29.366Z,97766.60
2023-08-03T05:31:57.048Z,97767.20
2023-08-03T05:34:25.062Z,97758.40
2023-08-03T05:36:53.574Z,97755.20
2023-08-03T05:39:21.432Z,97752.40
2023-08-03T05:41:49.128Z,97764.60
2023-08-03T05:44:17.247Z,97773.60
2023-08-03T05:46:45.589Z,97780.60
2023-08-03T05:49:14.187Z,97784.00
2023-08-03T05:51:42.055Z,97775.40
2023-08-03T05:54:18.098Z,97771.40
2023-08-03T05:56:48.867Z,97769.20
2023-08-03T05:59:25.657Z,97766.20
2023-08-03T06:01:53.713Z,97787.20
2023-08-03T06:04:21.489Z,97783.60
2023-08-03T06:06:49.246Z,97793.80
2023-08-03T06:09:23.967Z,97787.60
2023-08-03T06:11:52.822Z,97780.20
2023-08-03T06:14:20.493Z,97764.20
2023-08-03T06:16:48.230Z,97784.20
2023-08-03T06:19:17.777Z,97788.20
2023-08-03T06:21:45.635Z,97790.20
2023-08-03T06:24:14.322Z,97788.40
2023-08-03T06:26:42.058Z,97789.00
2023-08-03T06:29:14.074Z,97800.60
2023-08-03T06:31:42.178Z,97809.60
2023-08-03T06:34:13.341Z,97821.00
2023-08-03T06:36:43.766Z,97835.80
2023-08-03T06:39:11.500Z,97846.80
2023-08-03T06:41:39.876Z,97857.40
2023-08-03T06:44:09.701Z,97868.60
2023-08-03T06:46:37.835Z,97876.00
2023-08-03T06:49:05.600Z,97874.80
2023-08-03T06:51:33.659Z,97879.80
2023-08-03T06:54:03.592Z,97865.80
2023-08-03T06:56:32.970Z,97852.80
2023-08-03T06:59:00.671Z,97849.60
2023-08-03T07:01:28.506Z,97857.40
2023-08-03T07:03:56.381Z,97869.60
2023-08-03T07:06:24.246Z,97882.80
2023-08-03T07:08:52.063Z,97881.00
2023-08-03T07:11:19.729Z,97880.60
2023-08-03T07:13:47.519Z,97875.20
2023-08-03T07:16:15.186Z,97884.80
2023-08-03T07:18:43.246Z,97893.00
2023-08-03T07:21:11.074Z,97887.00
2023-08-03T07:23:38.821Z,97864.60
2023-08-03T07:26:16.323Z,97863.60
2023-08-03T07:28:44.098Z,97881.60
2023-08-03T07:31:15.941Z,97872.60
2023-08-03T07:33:43.930Z,97865.20
2023-08-03T07:36:19.269Z,97872.80
2023-08-03T07:38:47.446Z,97883.00
2023-08-03T07:41:15.279Z,97852.20
2023-08-03T07:43:43.017Z,97844.20
2023-08-03T07:46:11.029Z,97820.80
2023-08-03T07:48:38.739Z,97786.60
2023-08-03T07:51:21.582Z,97848.40
2023-08-03T07:53:50.955Z,97889.80
2023-08-03T07:56:21.395Z,97882.80
2023-08-03T07:58:51.391Z,97887.00
2023-08-03T08:01:20.605Z,97883.80
2023-08-03T08:03:49.528Z,97892.60
2023-08-03T08:06:20.838Z,97876.60
2023-08-03T08:08:51.384Z,97824.20
2023-08-03T08:11:20.688Z,97828.60
2023-08-03T08:13:48.780Z,97829.00
2023-08-03T08:16:17.453Z,97820.60
2023-08-03T08:18:45.257Z,97812.80
2023-08-03T08:21:14.216Z,97817.20
2023-08-03T08:23:42.146Z,97837.40
2023-08-03T08:26:17.098Z,97831.00
2023-08-03T08:29:02.085Z,97902.20
2023-08-03T08:34:02.310Z,97875.40
2023-08-03T08:36:30.108Z,97801.60
2023-08-03T08:38:57.799Z,97849.80
2023-08-03T08:41:25.536Z,97916.80
2023-08-03T08:43:53.240Z,97917.40
2023-08-03T08:46:20.923Z,97891.00
2023-08-03T08:48:50.441Z,97865.40
2023-08-03T08:51:57.122Z,97882.20
2023-08-03T09:01:55.273Z,97905.80
2023-08-03T09:04:33.271Z,97936.40
2023-08-03T09:07:02.800Z,97924.00
2023-08-03T09:09:37.532Z,97912.40
2023-08-03T09:12:09.089Z,97885.40
2023-08-03T09:14:52.206Z,97865.80
2023-08-03T09:17:24.081Z,97867.60
2023-08-03T09:25:11.085Z,97748.20
2023-08-03T09:30:22.022Z,97760.60
2023-08-03T09:32:51.598Z,97800.80
2023-08-03T09:35:24.923Z,97831.60
2023-08-03T09:37:55.523Z,97818.60
2023-08-03T09:40:25.072Z,97900.40
2023-08-03T09:42:54.785Z,97894.80
2023-08-03T09:47:57.913Z,97901.40
2023-08-03T09:50:32.687Z,97941.60
2023-08-03T09:55:48.965Z,97978.40
2023-08-03T09:58:24.880Z,97933.40
2023-08-03T10:00:58.793Z,97957.60
2023-08-03T10:03:30.847Z,97929.60
2023-08-03T10:06:11.807Z,97909.00
2023-08-03T10:08:58.257Z,97899.60
2023-08-03T10:11:38.120Z,97924.20
2023-08-03T10:14:07.070Z,97868.40
2023-08-03T10:16:37.009Z,97887.20
2023-08-03T10:19:06.942Z,97902.60
2023-08-03T10:21:36.184Z,97924.80
2023-08-03T10:24:19.228Z,97916.80
2023-08-03T10:26:55.629Z,97911.80
2023-08-03T10:29:51.120Z,97916.40
2023-08-03T10:32:22.512Z,97938.60
2023-08-03T10:34:53.822Z,97935.60
2023-08-03T10:37:21.659Z,97942.60
2023-08-03T10:39:51.357Z,97943.00
2023-08-03T10:42:28.757Z,97945.60
2023-08-03T10:45:22.286Z,97942.00
2023-08-03T10:47:50.662Z,97968.60
2023-08-03T10:50:18.985Z,97965.60
2023-08-03T10:52:46.947Z,97967.00
2023-08-03T10:55:27.889Z,97965.00
2023-08-03T10:57:58.594Z,97959.80
2023-08-03T11:00:26.297Z,97935.60
2023-08-03T11:02:54.081Z,97918.40
2023-08-03T11:05:22.336Z,97909.80
2023-08-03T11:07:50.129Z,97888.20
2023-08-03T11:10:18.076Z,97863.40
2023-08-03T11:12:47.433Z,97874.80
2023-08-03T11:15:19.008Z,97947.20
2023-08-03T11:17:51.819Z,97923.00
2023-08-03T11:20:20.844Z,97930.00
2023-08-03T11:22:49.011Z,97936.80
2023-08-03T11:25:21.083Z,97909.20
2023-08-03T11:27:48.946Z,97863.00
2023-08-03T11:30:21.613Z,97859.20
2023-08-03T11:32:56.651Z,97888.20
2023-08-03T11:35:24.897Z,97922.60
2023-08-03T11:37:52.583Z,97923.60
2023-08-03T11:40:20.421Z,97938.80
2023-08-03T11:42:48.267Z,97941.00
2023-08-03T11:45:18.334Z,97942.60
2023-08-03T11:47:48.882Z,97953.20
2023-08-03T11:50:19.588Z,97958.00
2023-08-03T11:52:47.974Z,97961.00
2023-08-03T11:55:39.556Z,97959.80
2023-08-03T11:58:11.175Z,97914.60
2023-08-03T12:00:41.132Z,97908.00
2023-08-03T12:03:09.158Z,97939.20
2023-08-03T12:06:06.725Z,97979.60
2023-08-03T12:08:47.292Z,97989.60
2023-08-03T12:11:24.732Z,97956.80
2023-08-03T12:13:53.561Z,97932.80
2023-08-03T12:16:21.176Z,97903.80
2023-08-03T12:18:50.688Z,97922.60
2023-08-03T12:21:18.990Z,97953.20
2023-08-03T12:23:46.778Z,97959.00
2023-08-03T12:26:14.482Z,97972.00
2023-08-03T12:28:42.431Z,97955.00
2023-08-03T12:31:10.916Z,97931.40
2023-08-03T12:33:38.930Z,97922.40
2023-08-03T12:36:07.568Z,97907.20
2023-08-03T12:38:35.232Z,97899.40
2023-08-03T12:41:03.007Z,97920.00
2023-08-03T12:43:33.733Z,97935.60
2023-08-03T12:46:01.738Z,97914.60
2023-08-03T12:48:29.967Z,97905.00
2023-08-03T12:50:57.777Z,97927.00
2023-08-03T12:53:27.153Z,97934.60
2023-08-03T12:55:54.994Z,97937.60
2023-08-03T12:58:22.818Z,97888.60
2023-08-03T13:00:50.553Z,97868.40
2023-08-03T13:03:18.492Z,97935.00
2023-08-03T13:05:46.706Z,97931.40
2023-08-03T13:08:18.394Z,97940.20
2023-08-03T13:10:47.070Z,97934.80
2023-08-03T13:13:18.297Z,97945.20
2023-08-03T13:15:47.920Z,97945.20
2023-08-03T13:18:17.075Z,97948.00
2023-08-03T13:20:49.455Z,97943.20
2023-08-03T13:23:17.678Z,97945.00
2023-08-03T13:25:45.705Z,97949.20
2023-08-03T13:28:13.692Z,97954.80
2023-08-03T13:30:41.414Z,97958.80
2023-08-03T13:33:09.360Z,97960.00
2023-08-03T13:35:37.195Z,97971.40
2023-08-03T13:38:04.959Z,97976.40
2023-08-03T13:40:32.651Z,97975.60
2023-08-03T13:43:00.333Z,97980.60
2023-08-03T13:45:27.975Z,97967.20
2023-08-03T13:47:55.712Z,97961.80
2023-08-03T13:50:23.621Z,97959.60
2023-08-03T13:52:51.379Z,97966.40
2023-08-03T13:55:19.301Z,97967.00
2023-08-03T13:57:46.962Z,97973.60
2023-08-03T14:00:14.966Z,97964.60
2023-08-03T14:02:44.800Z,97961.20
2023-08-03T14:05:12.957Z,97970.20
2023-08-03T14:22:44.549Z,97960.60
2023-08-03T14:27:52.936Z,97972.20
2023-08-03T14:30:21.557Z,97971.20
2023-08-03T14:32:49.439Z,97975.00
2023-08-03T14:37:48.918Z,97961.60
2023-08-03T14:40:16.725Z,97972.00
2023-08-03T14:42:44.910Z,97976.80
2023-08-03T14:45:14.904Z,97978.80
2023-08-03T14:50:20.360Z,97979.20
2023-08-03T14:52:48.290Z,97978.20
2023-08-03T14:55:15.935Z,97988.60
2023-08-03T14:57:43.662Z,97985.60
2023-08-03T15:00:12.155Z,97983.20
2023-08-03T15:02:39.945Z,97982.20
2023-08-03T15:05:08.328Z,97974.20
2023-08-03T15:07:36.670Z,97971.20
2023-08-03T15:10:04.626Z,97971.80
2023-08-03T15:12:32.435Z,97978.20
2023-08-03T15:15:08.594Z,97975.00
2023-08-03T15:17:38.981Z,97975.00
2023-08-03T15:20:08.477Z,97977.20
2023-08-03T15:22:36.976Z,97979.80
2023-08-03T15:25:06.112Z,97972.40
2023-08-03T15:27:35.869Z,97970.00
2023-08-03T15:30:32.331Z,97975.60
2023-08-03T15:35:25.146Z,97981.20
2023-08-03T15:37:54.018Z,97980.40
2023-08-03T15:40:22.742Z,97981.20
2023-08-03T15:42:53.995Z,97985.60
2023-08-03T15:45:25.039Z,97981.00
2023-08-03T15:50:29.558Z,97990.20
2023-08-03T15:53:22.235Z,97992.80
2023-08-03T15:58:32.984Z,97999.00
2023-08-03T16:01:04.880Z,97997.20
2023-08-03T16:03:32.744Z,97999.20
2023-08-03T16:06:06.040Z,98003.40
2023-08-03T16:08:33.684Z,98005.80
2023-08-03T16:11:02.086Z,98002.20
2023-08-03T16:13:30.750Z,98013.60
2023-08-03T16:16:06.767Z,98002.40
2023-08-03T16:18:35.558Z,98011.40
2023-08-03T16:21:08.952Z,98009.40
2023-08-03T16:23:36.931Z,98003.40
2023-08-03T16:26:09.608Z,98003.00
2023-08-03T16:28:38.302Z,98009.60
2023-08-03T16:31:18.883Z,98005.80
2023-08-03T16:33:47.025Z,98016.60
2023-08-03T16:36:19.595Z,98007.20
2023-08-03T16:38:47.933Z,98011.20
2023-08-03T16:41:15.861Z,98008.60
2023-08-03T16:43:43.647Z,97997.60
2023-08-03T16:46:11.542Z,98008.00
2023-08-03T16:48:41.037Z,98016.00
2023-08-03T16:51:09.315Z,98026.60
2023-08-03T16:53:37.009Z,98033.40
2023-08-03T16:56:05.117Z,98032.80
2023-08-03T16:58:33.108Z,98028.40
2023-08-03T17:01:00.914Z,98028.20
2023-08-03T17:03:28.862Z,98031.20
2023-08-03T17:05:57.145Z,98032.40
2023-08-03T17:08:24.877Z,98041.20
2023-08-03T17:10:52.724Z,98036.40
2023-08-03T17:13:20.406Z,98033.40
2023-08-03T17:15:48.245Z,98028.00
2023-08-03T17:18:16.023Z,98030.40
2023-08-03T17:20:44.183Z,98037.80
2023-08-03T17:23:11.910Z,98040.80
2023-08-03T17:25:39.685Z,98044.60
2023-08-03T17:28:07.468Z,98049.80
2023-08-03T17:30:36.922Z,98063.60
2023-08-03T17:33:05.142Z,98072.40
2023-08-03T17:35:32.916Z,98073.00
2023-08-03T17:38:00.559Z,98067.40
2023-08-03T17:40:28.247Z,98077.40
2023-08-03T17:42:56.038Z,98074.00
2023-08-03T17:45:23.841Z,98077.40
2023-08-03T17:47:51.581Z,98066.40
2023-08-03T17:50:19.444Z,98068.20
2023-08-03T17:52:51.080Z,98066.20
2023-08-03T17:55:19.002Z,98068.60
2023-08-03T17:57:46.711Z,98068.60
2023-08-03T18:00:16.408Z,98077.80
2023-08-03T18:02:44.949Z,98076.80
2023-08-03T18:05:13.676Z,98081.60
2023-08-03T18:07:41.337Z,98073.20
2023-08-03T18:10:09.972Z,98087.00
2023-08-03T18:12:37.810Z,98090.20
2023-08-03T18:15:07.455Z,98098.40
2023-08-03T18:17:35.257Z,98095.00
2023-08-03T18:20:03.318Z,98108.80
2023-08-03T18:22:31.064Z,98106.40
2023-08-03T18:24:58.766Z,98108.40
2023-08-03T18:27:26.690Z,98106.40
2023-08-03T18:29:54.772Z,98110.00
2023-08-03T18:32:22.478Z,98113.60
2023-08-03T18:34:50.262Z,98118.60
2023-08-03T18:37:19.086Z,98124.00
2023-08-03T18:39:46.796Z,98130.20
2023-08-03T18:42:15.040Z,98138.40
2023-08-03T18:44:42.776Z,98134.60
2023-08-03T18:47:10.434Z,98135.80
2023-08-03T18:49:38.105Z,98138.60
2023-08-03T18:52:07.195Z,98143.00
2023-08-03T18:54:34.947Z,98153.40
2023-08-03T18:57:02.679Z,98157.80
2023-08-03T18:59:30.378Z,98161.80
2023-08-03T19:01:58.036Z,98171.80
2023-08-03T19:04:25.702Z,98170.40
2023-08-03T19:06:53.360Z,98172.60
2023-08-03T19:09:21.062Z,98180.40
2023-08-03T19:11:48.719Z,98181.80
2023-08-03T19:14:16.384Z,98183.00
2023-08-03T19:16:44.185Z,98192.80
2023-08-03T19:19:11.979Z,98194.20
2023-08-03T19:21:39.638Z,98197.80
2023-08-03T19:24:07.285Z,98199.40
2023-08-03T19:26:34.942Z,98205.60
2023-08-03T19:29:02.678Z,98214.80
2023-08-03T19:31:30.368Z,98218.80
2023-08-03T19:33:58.006Z,98216.00
2023-08-03T19:36:25.658Z,98210.80
2023-08-03T19:38:53.270Z,98209.00
2023-08-03T19:41:20.981Z,98210.40
2023-08-03T19:43:48.691Z,98226.20
2023-08-03T19:46:16.578Z,98223.20
2023-08-03T19:48:44.327Z,98223.60
2023-08-03T19:53:42.760Z,98228.80
2023-08-03T20:06:15.623Z,98227.40
2023-08-03T20:11:14.111Z,98227.60
2023-08-03T20:16:12.511Z,98240.20
2023-08-03T20:19:05.600Z,98234.80
2023-08-03T20:21:27.807Z,98228.40
2023-08-03T20:23:56.195Z,98232.20
2023-08-03T20:26:35.571Z,98232.00
2023-08-03T20:29:05.993Z,98244.20
2023-08-03T20:31:34.946Z,98237.20
2023-08-03T20:36:34.105Z,98241.00
2023-08-03T20:49:04.978Z,98254.60
2023-08-03T20:51:32.986Z,98256.40
2023-08-03T20:54:00.731Z,98265.80
2023-08-03T20:56:28.406Z,98262.40
2023-08-03T20:58:56.174Z,98259.00
2023-08-03T21:01:24.012Z,98251.60
2023-08-03T21:03:51.759Z,98256.20
2023-08-03T21:06:20.819Z,98264.80
2023-08-03T21:08:48.712Z,98270.20
2023-08-03T21:11:17.223Z,98265.40
2023-08-03T21:13:45.234Z,98263.00
2023-08-03T21:16:14.909Z,98271.00
2023-08-03T21:21:19.478Z,98277.20
2023-08-03T21:23:47.798Z,98291.60
2023-08-03T21:26:15.727Z,98290.80
2023-08-03T21:28:45.756Z,98291.80
2023-08-03T21:31:13.532Z,98299.60
2023-08-03T21:33:41.526Z,98303.60
2023-08-03T21:36:09.543Z,98304.40
2023-08-03T21:38:37.180Z,98307.60
2023-08-03T21:41:04.923Z,98310.00
2023-08-03T21:43:32.645Z,98314.60
2023-08-03T21:46:00.282Z,98315.00
2023-08-03T21:48:28.066Z,98310.60
2023-08-03T21:50:55.836Z,98311.80
2023-08-03T21:53:23.541Z,98318.80
2023-08-03T21:55:51.235Z,98310.20
2023-08-03T21:58:18.939Z,98308.80
2023-08-03T22:00:46.635Z,98308.60
2023-08-03T22:03:14.652Z,98307.00
2023-08-03T22:05:42.974Z,98305.80
2023-08-03T22:08:10.634Z,98297.60
2023-08-03T22:10:41.438Z,98296.80
2023-08-03T22:13:09.450Z,98301.20
2023-08-03T22:15:37.207Z,98305.00
2023-08-03T22:18:05.013Z,98309.00
2023-08-03T22:20:32.716Z,98306.40
2023-08-03T22:23:00.418Z,98303.20
2023-08-03T22:25:28.148Z,98304.00
2023-08-03T22:27:55.815Z,98304.40
2023-08-03T22:30:23.522Z,98305.60
2023-08-03T22:32:51.183Z,98314.20
2023-08-03T22:35:18.965Z,98319.00
2023-08-03T22:37:46.690Z,98329.40
2023-08-03T22:40:14.411Z,98331.80
2023-08-03T22:42:43.549Z,98329.20
2023-08-03T22:45:11.218Z,98330.00
2023-08-03T22:48:02.002Z,98330.40
2023-08-03T22:50:26.957Z,98322.20
2023-08-03T22:52:54.654Z,98319.20
2023-08-03T22:55:22.296Z,98320.00
2023-08-03T22:57:49.996Z,98325.40
2023-08-03T23:00:17.943Z,98323.00
2023-08-03T23:02:45.988Z,98327.20
2023-08-03T23:05:13.868Z,98330.60
2023-08-03T23:07:41.564Z,98325.40
2023-08-03T23:10:09.843Z,98315.80
2023-08-03T23:12:40.067Z,98309.00
2023-08-03T23:15:08.432Z,98314.60
2023-08-03T23:17:36.159Z,98310.40
2023-08-03T23:20:04.743Z,98311.00
2023-08-03T23:22:32.558Z,98311.40
2023-08-03T23:25:00.336Z,98317.20
2023-08-03T23:27:28.015Z,98319.60
2023-08-03T23:29:55.724Z,98320.20
2023-08-03T23:32:23.441Z,98322.00
2023-08-03T23:34:51.117Z,98321.40
2023-08-03T23:37:18.805Z,98326.40
2023-08-03T23:39:46.532Z,98321.00
2023-08-03T23:42:14.208Z,98312.40
2023-08-03T23:44:41.870Z,98309.00
2023-08-03T23:47:09.616Z,98308.80
2023-08-03T23:49:37.240Z,98312.80
2023-08-03T23:52:05.467Z,98326.20
2023-08-03T23:54:33.111Z,98331.60
2023-08-03T23:57:00.809Z,98332.20
2023-08-03T23:59:28.471Z,98340.40
